Time;durP1;ratioP1;P1;durP2;ratioP2;P2;SDS_P1;SDS_P2;PMS_P1;PMS_P2;Temp;Humidity;BMP_temperature;BMP_pressure;BME280_temperature;BME280_humidity;BME280_pressure;Samples;Min_cycle;Max_cycle;Signal;HPM_P1;HPM_P2
2021/07/20 00:00:22;119269.00;0.40;206.82;0.00;0.00;0.62;;;;;22.50;1.00;;;;;;2578679;55;945;-87
2021/07/20 00:02:51;220465.00;0.73;381.14;0.00;0.00;0.62;;;;;22.40;1.00;;;;;;2578698;55;1909;-88
2021/07/20 00:05:23;202348.00;0.67;349.97;0.00;0.00;0.62;;;;;22.50;1.00;;;;;;2576619;55;1269;-88
2021/07/20 00:07:50;257471.00;0.86;444.80;50895.00;0.17;88.73;;;;;22.50;1.00;;;;;;2578865;55;1192;-86
2021/07/20 00:10:22;129573.00;0.43;224.59;0.00;0.00;0.62;;;;;22.70;1.00;;;;;;2576735;55;946;-88
2021/07/20 00:12:49;83440.00;0.28;144.98;0.00;0.00;0.62;;;;;22.80;1.00;;;;;;2578909;55;1137;-89
2021/07/20 00:15:17;111732.00;0.37;193.82;0.00;0.00;0.62;;;;;23.00;1.00;;;;;;2576665;55;1078;-89
2021/07/20 00:17:46;264388.00;0.88;456.69;0.00;0.00;0.62;;;;;23.00;1.00;;;;;;2578847;55;1313;-89
2021/07/20 00:20:16;140541.00;0.47;243.50;0.00;0.00;0.62;;;;;23.20;1.00;;;;;;2578765;55;1174;-88
2021/07/20 00:22:43;106236.00;0.35;184.33;0.00;0.00;0.62;;;;;23.00;1.00;;;;;;2576700;55;1101;-88
2021/07/20 00:25:13;226378.00;0.75;391.32;0.00;0.00;0.62;;;;;22.90;1.00;;;;;;2576676;55;1022;-90
2021/07/20 00:27:40;124531.00;0.42;215.90;0.00;0.00;0.62;;;;;22.80;1.00;;;;;;2576631;55;1380;-90
2021/07/20 00:30:09;182834.00;0.61;316.37;0.00;0.00;0.62;;;;;22.70;1.00;;;;;;2576638;55;1043;-89
2021/07/20 00:32:38;106370.00;0.35;184.57;0.00;0.00;0.62;;;;;22.50;1.00;;;;;;2576651;55;1038;-89
2021/07/20 00:35:06;185861.00;0.62;321.58;0.00;0.00;0.62;;;;;22.50;1.00;;;;;;2578850;55;941;-87
2021/07/20 00:37:33;217488.00;0.72;376.02;0.00;0.00;0.62;;;;;22.70;1.00;;;;;;2576630;55;1387;-88
2021/07/20 00:40:00;304514.00;1.02;525.68;0.00;0.00;0.62;;;;;22.70;1.00;;;;;;2578828;55;873;-86
2021/07/20 00:42:27;185976.00;0.62;321.78;0.00;0.00;0.62;;;;;22.60;1.00;;;;;;2576722;55;1111;-88
2021/07/20 00:44:54;403229.00;1.34;695.36;0.00;0.00;0.62;;;;;22.40;1.00;;;;;;2578798;55;1944;-89
2021/07/20 00:47:21;304416.00;1.01;525.51;9820.00;0.03;17.64;;;;;22.20;1.00;;;;;;2578729;55;1541;-87
2021/07/20 00:49:50;757880.00;2.53;1307.76;6238.00;0.02;11.43;;;;;22.10;1.00;;;;;;2578829;55;1671;-86
2021/07/20 00:52:17;270815.00;0.90;467.75;0.00;0.00;0.62;;;;;22.10;1.00;;;;;;2577544;55;1070;-89
2021/07/20 00:54:44;162679.00;0.54;281.65;0.00;0.00;0.62;;;;;22.30;1.00;;;;;;2576638;55;1058;-86
2021/07/20 00:57:12;115855.00;0.39;200.93;0.00;0.00;0.62;;;;;22.20;1.00;;;;;;2576657;55;1302;-89
2021/07/20 00:59:40;157981.00;0.53;273.56;0.00;0.00;0.62;;;;;22.20;1.00;;;;;;2578812;55;1688;-87
2021/07/20 01:02:07;76248.00;0.25;132.56;0.00;0.00;0.62;;;;;22.10;1.00;;;;;;2578829;55;954;-88
2021/07/20 01:04:34;460279.00;1.53;793.46;54633.00;0.18;95.20;;;;;22.00;1.00;;;;;;2578804;55;1948;-87
2021/07/20 01:07:03;243414.00;0.81;420.62;0.00;0.00;0.62;;;;;22.20;1.00;;;;;;2578698;55;1517;-85
2021/07/20 01:09:31;138778.00;0.46;240.46;0.00;0.00;0.62;;;;;22.20;1.00;;;;;;2578725;55;1644;-87
2021/07/20 01:11:59;710713.00;2.37;1225.82;125326.00;0.42;217.27;;;;;22.20;1.00;;;;;;2578666;55;1512;-86
2021/07/20 01:14:28;175056.00;0.58;302.98;0.00;0.00;0.62;;;;;22.30;1.00;;;;;;2578716;55;1698;-85
2021/07/20 01:16:57;159659.00;0.53;276.45;0.00;0.00;0.62;;;;;22.50;1.00;;;;;;2576546;55;1260;-85
2021/07/20 01:19:32;572991.00;1.91;987.61;111760.00;0.37;193.87;;;;;22.70;1.00;;;;;;2578697;55;1553;-86
2021/07/20 01:22:04;184087.00;0.61;318.53;0.00;0.00;0.62;;;;;22.80;1.00;;;;;;2578796;55;1126;-85
2021/07/20 01:24:33;83932.00;0.28;145.83;0.00;0.00;0.62;;;;;22.80;1.00;;;;;;2578749;55;1957;-85
2021/07/20 01:27:00;195194.00;0.65;337.65;73983.00;0.25;128.64;;;;;22.70;1.00;;;;;;2578794;55;1359;-87
2021/07/20 01:29:29;166255.00;0.55;287.82;0.00;0.00;0.62;;;;;22.70;1.00;;;;;;2578726;55;1642;-86
2021/07/20 01:32:01;138456.00;0.46;239.91;0.00;0.00;0.62;;;;;22.30;1.00;;;;;;2578848;55;1112;-85
2021/07/20 01:34:30;178337.00;0.59;308.63;0.00;0.00;0.62;;;;;22.20;1.00;;;;;;2578668;55;1214;-86
2021/07/20 01:36:58;239768.00;0.80;414.35;0.00;0.00;0.62;;;;;21.80;1.00;;;;;;2576552;55;1364;-86
2021/07/20 01:39:26;316429.00;1.05;546.16;0.00;0.00;0.62;;;;;21.70;1.00;;;;;;2578782;55;982;-86
2021/07/20 01:41:55;257582.00;0.86;444.99;0.00;0.00;0.62;;;;;21.90;1.00;;;;;;2578836;55;962;-86
2021/07/20 01:44:23;237635.00;0.79;410.68;41448.00;0.14;72.39;;;;;22.10;1.00;;;;;;2578739;55;1949;-86
2021/07/20 01:46:53;502324.00;1.67;865.82;53821.00;0.18;93.79;;;;;22.10;1.00;;;;;;2578696;55;1583;-86
2021/07/20 01:49:21;336230.00;1.12;580.19;36378.00;0.12;63.62;;;;;22.10;1.00;;;;;;2578723;55;1033;-86
2021/07/20 01:51:50;129350.00;0.43;224.21;0.00;0.00;0.62;;;;;22.20;1.00;;;;;;2578767;55;1087;-85
2021/07/20 01:54:17;288067.00;0.96;497.41;0.00;0.00;0.62;;;;;22.10;1.00;;;;;;2578663;55;1091;-85
2021/07/20 01:56:45;123110.00;0.41;213.45;0.00;0.00;0.62;;;;;22.00;1.00;;;;;;2578505;55;1573;-84
2021/07/20 01:59:14;350826.00;1.17;605.28;0.00;0.00;0.62;;;;;22.00;1.00;;;;;;2578713;55;1664;-85
2021/07/20 02:01:50;448503.00;1.50;773.21;44355.00;0.15;77.42;;;;;22.20;1.00;;;;;;2578680;55;1668;-88
2021/07/20 02:04:38;164061.00;0.55;284.04;0.00;0.00;0.62;;;;;22.30;1.00;;;;;;2578639;55;1961;-86
2021/07/20 02:09:55;12432.00;0.04;22.16;0.00;0.00;0.62;;;;;22.50;1.00;;;;;;2578867;55;718;-89
2021/07/20 02:12:32;220860.00;0.74;381.82;0.00;0.00;0.62;;;;;22.60;1.00;;;;;;2578665;55;1493;-89
2021/07/20 02:15:05;249539.00;0.83;431.16;40346.00;0.13;70.49;;;;;22.50;1.00;;;;;;2578650;55;1663;-85
2021/07/20 02:17:34;80498.00;0.27;139.90;0.00;0.00;0.62;;;;;22.50;1.00;;;;;;2578667;55;1525;-85
2021/07/20 02:20:09;60608.00;0.20;105.53;0.00;0.00;0.62;;;;;22.40;1.00;;;;;;2578568;55;1580;-85
2021/07/20 02:22:37;108969.00;0.36;189.05;0.00;0.00;0.62;;;;;22.40;1.00;;;;;;2576502;55;1110;-86
2021/07/20 02:25:07;157517.00;0.53;272.76;0.00;0.00;0.62;;;;;22.30;1.00;;;;;;2578514;55;1963;-84
2021/07/20 02:27:35;75229.00;0.25;130.80;0.00;0.00;0.62;;;;;22.50;1.00;;;;;;2578582;55;1580;-85
2021/07/20 02:30:10;3640.00;0.01;6.93;0.00;0.00;0.62;;;;;22.50;1.00;;;;;;2578699;55;1112;-84
2021/07/20 02:32:37;272222.00;0.91;470.16;0.00;0.00;0.62;;;;;22.40;1.00;;;;;;2578568;55;1054;-85
2021/07/20 02:35:06;174853.00;0.58;302.63;48789.00;0.16;85.09;;;;;22.60;1.00;;;;;;2578605;55;1713;-85
2021/07/20 02:37:35;232627.00;0.78;402.07;0.00;0.00;0.62;;;;;22.80;1.00;;;;;;2578552;55;1679;-90
2021/07/20 02:40:03;128330.00;0.43;222.45;0.00;0.00;0.62;;;;;22.50;1.00;;;;;;2576485;55;1153;-88
2021/07/20 02:42:31;126502.00;0.42;219.30;0.00;0.00;0.62;;;;;22.70;1.00;;;;;;2578545;55;1706;-84
2021/07/20 02:45:01;210174.00;0.70;363.43;0.00;0.00;0.62;;;;;22.60;1.00;;;;;;2578572;55;1910;-87
2021/07/20 02:47:32;176659.00;0.59;305.74;0.00;0.00;0.62;;;;;22.40;1.00;;;;;;2578581;55;1298;-86
2021/07/20 02:50:00;121952.00;0.41;211.45;0.00;0.00;0.62;;;;;22.40;1.00;;;;;;2578657;55;1724;-87
2021/07/20 02:52:30;148029.00;0.49;256.41;0.00;0.00;0.62;;;;;22.50;1.00;;;;;;2578551;55;1578;-86
2021/07/20 02:55:01;180363.00;0.60;312.11;0.00;0.00;0.62;;;;;22.50;1.00;;;;;;2578678;55;1054;-87
2021/07/20 02:57:28;258555.00;0.86;446.66;0.00;0.00;0.62;;;;;22.40;1.00;;;;;;2576528;55;1440;-85
2021/07/20 02:59:58;115391.00;0.38;200.13;0.00;0.00;0.62;;;;;22.40;1.00;;;;;;2578559;55;1622;-85
2021/07/20 03:02:26;188007.00;0.63;325.28;0.00;0.00;0.62;;;;;22.20;1.00;;;;;;2578589;55;1454;-85
2021/07/20 03:04:55;276916.00;0.92;478.24;25812.00;0.09;45.33;;;;;22.30;1.00;;;;;;2578611;55;1964;-86
2021/07/20 03:07:27;112150.00;0.37;194.54;0.00;0.00;0.62;;;;;22.60;1.00;;;;;;2578535;55;1311;-85
2021/07/20 03:09:56;173988.00;0.58;301.14;0.00;0.00;0.62;;;;;22.70;1.00;;;;;;2578591;55;1108;-85
2021/07/20 03:12:26;184501.00;0.62;319.24;0.00;0.00;0.62;;;;;22.60;1.00;;;;;;2578538;55;1029;-85
2021/07/20 03:14:54;248024.00;0.83;428.55;0.00;0.00;0.62;;;;;22.50;1.00;;;;;;2578540;55;1125;-84
2021/07/20 03:17:25;260862.00;0.87;450.63;0.00;0.00;0.62;;;;;22.30;1.00;;;;;;2578449;55;1235;-86
2021/07/20 03:19:56;242894.00;0.81;419.73;0.00;0.00;0.62;;;;;22.30;1.00;;;;;;2578583;55;1738;-84
2021/07/20 03:22:28;188829.00;0.63;326.69;0.00;0.00;0.62;;;;;22.30;1.00;;;;;;2578217;55;1654;-90
2021/07/20 03:24:57;137801.00;0.46;238.78;0.00;0.00;0.62;;;;;22.30;1.00;;;;;;2578589;55;1894;-86
2021/07/20 03:27:24;362269.00;1.21;624.95;19495.00;0.06;34.40;;;;;22.30;1.00;;;;;;2578560;55;1311;-85
2021/07/20 03:29:53;287460.00;0.96;496.36;23710.00;0.08;41.69;;;;;22.20;1.00;;;;;;2578574;55;1109;-86
2021/07/20 03:32:21;216729.00;0.72;374.72;82603.00;0.28;143.53;;;;;22.00;1.00;;;;;;2578490;55;1649;-85
2021/07/20 03:34:50;215859.00;0.72;373.22;0.00;0.00;0.62;;;;;22.10;1.00;;;;;;2578391;55;1590;-85
2021/07/20 03:37:19;162146.00;0.54;280.74;0.00;0.00;0.62;;;;;22.00;1.00;;;;;;2576335;55;1254;-86
2021/07/20 03:39:47;179248.00;0.60;310.19;70095.00;0.23;121.92;;;;;22.20;1.00;;;;;;2578546;55;1058;-84
2021/07/20 03:42:15;100676.00;0.34;174.74;0.00;0.00;0.62;;;;;22.20;1.00;;;;;;2578702;55;1161;-85
2021/07/20 03:44:43;221170.00;0.74;382.36;27313.00;0.09;47.93;;;;;22.20;1.00;;;;;;2578767;55;1959;-85
2021/07/20 03:47:11;254968.00;0.85;440.49;33600.00;0.11;58.81;;;;;22.20;1.00;;;;;;2576527;55;1371;-86
2021/07/20 03:49:40;129770.00;0.43;224.93;0.00;0.00;0.62;;;;;22.30;1.00;;;;;;2578754;55;1105;-85
2021/07/20 03:52:07;189138.00;0.63;327.22;0.00;0.00;0.62;;;;;22.30;1.00;;;;;;2576593;55;1077;-85
2021/07/20 03:54:37;273215.00;0.91;471.87;0.00;0.00;0.62;;;;;22.10;1.00;;;;;;2578378;55;1503;-85
2021/07/20 03:57:05;234248.00;0.78;404.86;0.00;0.00;0.62;;;;;22.30;1.00;;;;;;2578486;55;1776;-85
2021/07/20 03:59:35;317921.00;1.06;548.72;0.00;0.00;0.62;;;;;22.50;1.00;;;;;;2578633;55;1630;-85
2021/07/20 04:02:05;216749.00;0.72;374.75;0.00;0.00;0.62;;;;;22.80;1.00;;;;;;2578563;55;1741;-85
2021/07/20 04:04:36;347214.00;1.16;599.07;30538.00;0.10;53.51;;;;;22.60;1.00;;;;;;2576456;55;1951;-85
2021/07/20 04:07:06;307460.00;1.02;530.74;0.00;0.00;0.62;;;;;22.30;1.00;;;;;;2578551;55;1585;-85
2021/07/20 04:09:33;173647.00;0.58;300.55;0.00;0.00;0.62;;;;;22.00;1.00;;;;;;2578532;55;1657;-85
2021/07/20 04:12:02;54013.00;0.18;94.13;0.00;0.00;0.62;;;;;22.10;1.00;;;;;;2578475;55;1113;-84
2021/07/20 04:14:30;227765.00;0.76;393.70;0.00;0.00;0.62;;;;;22.30;1.00;;;;;;2578476;55;1599;-85
2021/07/20 04:16:58;175652.00;0.59;304.00;0.00;0.00;0.62;;;;;22.30;1.00;;;;;;2578464;55;1695;-85
2021/07/20 04:19:25;251459.00;0.84;434.46;0.00;0.00;0.62;;;;;22.50;1.00;;;;;;2576557;55;1086;-85
2021/07/20 04:21:52;407281.00;1.36;702.32;113.00;0.00;0.82;;;;;22.70;1.00;;;;;;2578779;55;1683;-86
2021/07/20 04:24:19;275559.00;0.92;475.90;0.00;0.00;0.62;;;;;22.80;1.00;;;;;;2578578;55;1952;-86
2021/07/20 04:26:48;145692.00;0.49;252.38;0.00;0.00;0.62;;;;;22.60;1.00;;;;;;2578778;55;1342;-87
2021/07/20 04:29:16;173257.00;0.58;299.88;0.00;0.00;0.62;;;;;22.90;1.00;;;;;;2578678;55;1404;-84
2021/07/20 04:31:44;276190.00;0.92;476.99;25016.00;0.08;43.96;;;;;22.90;1.00;;;;;;2578524;55;984;-85
2021/07/20 04:34:13;248244.00;0.83;428.93;0.00;0.00;0.62;;;;;22.80;1.00;;;;;;2578325;55;1560;-85
2021/07/20 04:36:40;119482.00;0.40;207.19;0.00;0.00;0.62;;;;;22.90;1.00;;;;;;2577810;55;1329;-85
2021/07/20 04:39:09;128457.00;0.43;222.67;0.00;0.00;0.62;;;;;23.00;1.00;;;;;;2577721;55;1721;-85
2021/07/20 04:41:38;334665.00;1.12;577.50;0.00;0.00;0.62;;;;;23.00;1.00;;;;;;2577465;55;1089;-84
2021/07/20 04:44:06;171132.00;0.57;296.22;0.00;0.00;0.62;;;;;23.00;1.00;;;;;;2577378;55;1173;-85
2021/07/20 04:46:35;17365.00;0.06;30.71;0.00;0.00;0.62;;;;;23.20;1.00;;;;;;2577755;55;1349;-85
2021/07/20 04:49:03;130783.00;0.44;226.68;0.00;0.00;0.62;;;;;23.20;1.00;;;;;;2575377;55;1227;-85
2021/07/20 04:51:32;121753.00;0.41;211.11;0.00;0.00;0.62;;;;;23.20;1.00;;;;;;2577150;55;1065;-85
2021/07/20 04:54:00;139763.00;0.47;242.16;0.00;0.00;0.62;;;;;23.10;1.00;;;;;;2575215;56;1121;-85
2021/07/20 04:56:27;278883.00;0.93;481.62;70969.00;0.24;123.43;;;;;23.30;1.00;;;;;;2577598;55;1340;-85
2021/07/20 04:58:54;182472.00;0.61;315.75;53802.00;0.18;93.76;;;;;23.30;1.00;;;;;;2576652;55;1141;-85
2021/07/20 05:01:36;167506.00;0.56;289.97;0.00;0.00;0.62;;;;;23.10;1.00;;;;;;2577596;55;1096;-85
2021/07/20 05:04:08;270799.00;0.90;467.72;0.00;0.00;0.62;;;;;23.00;1.00;;;;;;2577418;55;1772;-84
2021/07/20 05:06:53;172893.00;0.58;299.25;31710.00;0.11;55.54;;;;;22.90;1.00;;;;;;2578600;55;1915;-88
2021/07/20 05:09:26;330313.00;1.10;570.02;75675.00;0.25;131.57;;;;;23.10;1.00;;;;;;2578793;55;1681;-88
2021/07/20 05:12:03;162624.00;0.54;281.56;0.00;0.00;0.62;;;;;23.10;1.00;;;;;;2577509;55;1083;-85
2021/07/20 05:14:39;173137.00;0.58;299.67;0.00;0.00;0.62;;;;;22.80;1.00;;;;;;2577998;55;1698;-84
2021/07/20 05:17:14;233900.00;0.78;404.26;0.00;0.00;0.62;;;;;22.80;1.00;;;;;;2577825;55;1643;-85
2021/07/20 05:19:55;136685.00;0.46;236.86;0.00;0.00;0.62;;;;;22.60;1.00;;;;;;2577845;55;1261;-86
2021/07/20 05:22:27;317307.00;1.06;547.67;0.00;0.00;0.62;;;;;22.70;1.00;;;;;;2578028;55;1109;-86
2021/07/20 05:25:06;159749.00;0.53;276.61;0.00;0.00;0.62;;;;;22.60;1.00;;;;;;2578131;55;1945;-86
2021/07/20 05:27:45;200816.00;0.67;347.33;0.00;0.00;0.62;;;;;23.20;1.00;;;;;;2578347;55;1628;-86
2021/07/20 05:30:19;53231.00;0.18;92.77;0.00;0.00;0.62;;;;;23.30;1.00;;;;;;2578365;55;1184;-86
2021/07/20 05:32:58;247447.00;0.82;427.56;46746.00;0.16;81.56;;;;;22.90;1.00;;;;;;2577447;55;1162;-86
2021/07/20 05:35:37;16853.00;0.06;29.82;0.00;0.00;0.62;;;;;23.30;1.00;;;;;;2578046;55;1549;-85
2021/07/20 05:38:09;105200.00;0.35;182.55;0.00;0.00;0.62;;;;;23.20;1.00;;;;;;2578218;55;1268;-86
2021/07/20 05:40:37;58836.00;0.20;102.46;0.00;0.00;0.62;;;;;23.40;1.00;;;;;;2578769;55;1594;-85
2021/07/20 05:43:27;290949.00;0.97;502.36;51783.00;0.17;90.27;;;;;23.80;1.00;;;;;;2576620;55;1098;-88
2021/07/20 05:46:15;76426.00;0.25;132.86;0.00;0.00;0.62;;;;;24.30;1.00;;;;;;2578693;55;1964;-88
2021/07/20 05:48:47;57762.00;0.19;100.61;0.00;0.00;0.62;;;;;24.90;1.00;;;;;;2578438;55;1683;-84
2021/07/20 05:51:20;53425.00;0.18;93.11;0.00;0.00;0.62;;;;;25.90;1.00;;;;;;2578704;55;1617;-88
2021/07/20 05:53:50;45677.00;0.15;79.71;0.00;0.00;0.62;;;;;26.20;1.00;;;;;;2578761;55;1167;-87
2021/07/20 05:56:34;187568.00;0.63;324.52;0.00;0.00;0.62;;;;;27.00;1.00;;;;;;2578732;55;1266;-89
2021/07/20 05:59:18;;;;;;;;;;;;;;;;;;;;;
2021/07/20 06:01:53;379350.00;1.26;654.31;109682.00;0.37;190.28;;;;;28.70;1.00;;;;;;2552468;56;1700;-89
2021/07/20 06:04:21;24298.00;0.08;42.71;0.00;0.00;0.62;;;;;28.50;1.00;;;;;;2552598;56;1174;-87
2021/07/20 06:07:03;0.00;0.00;0.62;0.00;0.00;0.62;;;;;29.00;1.00;;;;;;2550273;56;1965;-85
2021/07/20 06:09:33;207399.00;0.69;358.66;0.00;0.00;0.62;;;;;29.20;1.00;;;;;;2552496;56;1535;-90
2021/07/20 06:12:08;537652.00;1.79;926.68;116319.00;0.39;201.73;;;;;30.10;1.00;;;;;;2552260;56;1708;-85
2021/07/20 06:14:39;0.00;0.00;0.62;0.00;0.00;0.62;;;;;29.90;1.00;;;;;;2550418;56;919;-89
2021/07/20 06:17:15;53549.00;0.18;93.32;0.00;0.00;0.62;;;;;30.30;1.00;;;;;;2552155;56;1551;-87
2021/07/20 06:19:44;587443.00;1.96;1012.54;154719.00;0.52;267.94;;;;;29.80;1.00;;;;;;2569855;55;1635;-87
2021/07/20 06:22:19;291842.00;0.97;503.90;0.00;0.00;0.62;;;;;30.20;1.00;;;;;;2578567;55;1671;-90
2021/07/20 06:24:50;326449.00;1.09;563.38;38211.00;0.13;66.79;;;;;30.60;1.00;;;;;;2578068;55;1910;-85
2021/07/20 06:27:31;173245.00;0.58;299.86;0.00;0.00;0.62;;;;;30.80;1.00;;;;;;2576655;55;1344;-88
2021/07/20 06:30:10;274649.00;0.92;474.34;0.00;0.00;0.62;;;;;31.10;1.00;;;;;;2578581;55;1145;-86
2021/07/20 06:32:44;154532.00;0.52;267.62;0.00;0.00;0.62;;;;;30.40;1.00;;;;;;2578522;55;1192;-85
2021/07/20 06:35:20;143922.00;0.48;249.33;0.00;0.00;0.62;;;;;30.50;1.00;;;;;;2578441;55;1225;-87
2021/07/20 06:38:04;118226.00;0.39;205.02;0.00;0.00;0.62;;;;;30.90;1.00;;;;;;2572492;55;1430;-86
2021/07/20 06:40:32;262926.00;0.88;454.18;0.00;0.00;0.62;;;;;31.40;1.00;;;;;;2572833;55;1541;-86
2021/07/20 06:45:43;169443.00;0.56;293.31;0.00;0.00;0.62;;;;;32.10;1.00;;;;;;2570118;56;1944;-89
2021/07/20 06:48:21;174931.00;0.58;302.76;43739.00;0.15;76.36;;;;;32.70;1.00;;;;;;2570595;56;984;-86
2021/07/20 06:50:57;641066.00;2.14;1105.18;227753.00;0.76;393.68;;;;;32.80;1.00;;;;;;2572135;55;1576;-85
2021/07/20 06:53:29;94875.00;0.32;164.72;0.00;0.00;0.62;;;;;32.50;1.00;;;;;;2571125;56;1685;-85
2021/07/20 06:58:50;52213.00;0.17;91.01;0.00;0.00;0.62;;;;;32.70;1.00;;;;;;2575921;55;980;-87
2021/07/20 07:01:24;166249.00;0.55;287.81;0.00;0.00;0.62;;;;;32.30;1.00;;;;;;2578325;55;1701;-86
2021/07/20 07:04:13;263809.00;0.88;455.70;56464.00;0.19;98.36;;;;;33.30;1.00;;;;;;2578305;55;1272;-86
2021/07/20 07:07:04;231852.00;0.77;400.73;0.00;0.00;0.62;;;;;33.20;1.00;;;;;;2578439;55;1952;-84
2021/07/20 07:09:37;192892.00;0.64;333.69;50727.00;0.17;88.44;;;;;33.20;1.00;;;;;;2572717;55;916;-87
2021/07/20 07:12:10;58218.00;0.19;101.40;0.00;0.00;0.62;;;;;32.60;1.00;;;;;;2562452;56;1078;-84
2021/07/20 07:14:44;235698.00;0.79;407.35;35685.00;0.12;62.42;;;;;32.30;1.00;;;;;;2552382;56;1145;-86
2021/07/20 07:17:21;255402.00;0.85;441.24;87928.00;0.29;152.73;;;;;32.00;1.00;;;;;;2552550;56;1293;-90
2021/07/20 07:19:57;0.00;0.00;0.62;0.00;0.00;0.62;;;;;32.30;1.00;;;;;;2550238;56;1769;-91
2021/07/20 07:22:35;209207.00;0.70;361.77;0.00;0.00;0.62;;;;;32.50;1.00;;;;;;2552476;56;1119;-86
2021/07/20 07:25:06;115161.00;0.38;199.73;0.00;0.00;0.62;;;;;31.80;1.00;;;;;;2552543;56;1958;-85
2021/07/20 07:27:44;109847.00;0.37;190.57;0.00;0.00;0.62;;;;;31.20;1.00;;;;;;2552542;56;1643;-88
2021/07/20 07:30:20;18626.00;0.06;32.89;0.00;0.00;0.62;;;;;31.80;1.00;;;;;;2557630;56;1682;-88
2021/07/20 07:33:00;146143.00;0.49;253.16;0.00;0.00;0.62;;;;;32.30;1.00;;;;;;2563284;56;1127;-89
2021/07/20 07:35:46;23161.00;0.08;40.74;0.00;0.00;0.62;;;;;32.70;1.00;;;;;;2574049;55;1164;-88
2021/07/20 07:38:25;301811.00;1.01;521.03;58466.00;0.19;101.82;;;;;32.80;1.00;;;;;;2578745;55;1517;-90
2021/07/20 07:41:14;240732.00;0.80;416.01;62596.00;0.21;108.96;;;;;33.30;1.00;;;;;;2578838;55;1184;-86
2021/07/20 07:43:47;310439.00;1.03;535.86;61486.00;0.20;107.05;;;;;33.60;1.00;;;;;;2578477;55;1063;-87
2021/07/20 07:46:24;336288.00;1.12;580.29;59696.00;0.20;103.95;;;;;33.30;1.00;;;;;;2578567;55;1968;-86
2021/07/20 07:48:57;508125.00;1.69;875.81;89105.00;0.30;154.76;;;;;33.70;1.00;;;;;;2576370;55;1634;-87
2021/07/20 07:51:26;359051.00;1.20;619.42;48670.00;0.16;84.89;;;;;33.00;1.00;;;;;;2578869;55;903;-88
2021/07/20 07:54:00;228257.00;0.76;394.55;65281.00;0.22;113.61;;;;;33.60;1.00;;;;;;2576557;55;1099;-86
2021/07/20 07:56:40;215353.00;0.72;372.35;60306.00;0.20;105.01;;;;;33.70;1.00;;;;;;2578649;55;1686;-87
2021/07/20 07:59:14;407035.00;1.36;701.90;62038.00;0.21;108.00;;;;;33.40;1.00;;;;;;2569611;55;982;-87
2021/07/20 08:01:50;164044.00;0.55;284.01;59904.00;0.20;104.31;;;;;33.60;1.00;;;;;;2578791;55;946;-88
2021/07/20 08:04:28;234203.00;0.78;404.78;61435.00;0.20;106.96;;;;;33.20;1.00;;;;;;2578723;55;1418;-89
2021/07/20 08:07:01;367307.00;1.22;633.61;86160.00;0.29;149.68;;;;;32.40;1.00;;;;;;2578808;55;1904;-87
2021/07/20 08:09:38;193854.00;0.65;335.34;78093.00;0.26;135.74;;;;;32.80;1.00;;;;;;2578840;55;1035;-89
2021/07/20 08:12:16;342059.00;1.14;590.21;63728.00;0.21;110.92;;;;;33.70;1.00;;;;;;2578713;55;1712;-89
2021/07/20 08:14:48;262702.00;0.88;453.79;62444.00;0.21;108.70;;;;;33.80;1.00;;;;;;2576606;55;1025;-87
2021/07/20 08:17:25;266269.00;0.89;459.93;60350.00;0.20;105.08;;;;;34.20;1.00;;;;;;2578746;55;1597;-90
2021/07/20 08:19:57;193841.00;0.65;335.32;62323.00;0.21;108.49;;;;;33.60;1.00;;;;;;2576651;55;1252;-86
2021/07/20 08:22:30;204078.00;0.68;352.94;63357.00;0.21;110.28;;;;;33.20;1.00;;;;;;2576487;55;1042;-88
2021/07/20 08:25:10;227782.00;0.76;393.73;63313.00;0.21;110.20;;;;;33.10;1.00;;;;;;2578661;55;1710;-88
2021/07/20 08:28:08;273961.00;0.91;473.15;61760.00;0.21;107.52;;;;;33.20;1.00;;;;;;2576550;55;1917;-88
2021/07/20 08:30:41;245906.00;0.82;424.91;0.00;0.00;0.62;;;;;33.10;1.00;;;;;;2562736;56;920;-90
2021/07/20 08:33:18;163912.00;0.55;283.78;58336.00;0.19;101.60;;;;;33.20;1.00;;;;;;2560672;56;1090;-87
2021/07/20 08:35:56;188446.00;0.63;326.03;64504.00;0.22;112.26;;;;;32.90;1.00;;;;;;2560698;56;1373;-90
2021/07/20 08:38:24;171726.00;0.57;297.24;66083.00;0.22;114.99;;;;;33.40;1.00;;;;;;2562911;56;939;-89
2021/07/20 08:41:15;168045.00;0.56;290.90;45787.00;0.15;79.90;;;;;32.90;1.00;;;;;;2562787;56;1280;-88
2021/07/20 08:44:02;206626.00;0.69;357.33;66597.00;0.22;115.88;;;;;32.70;1.00;;;;;;2562921;56;955;-88
2021/07/20 08:46:51;292216.00;0.97;504.54;58578.00;0.20;102.02;;;;;32.20;1.00;;;;;;2562690;56;1960;-90
2021/07/20 08:49:38;239422.00;0.80;413.76;62365.00;0.21;108.56;;;;;33.20;1.00;;;;;;2574735;55;936;-89
2021/07/20 08:52:17;216579.00;0.72;374.46;67054.00;0.22;116.67;;;;;33.40;1.00;;;;;;2578774;55;957;-88
2021/07/20 08:54:52;168752.00;0.56;292.12;57368.00;0.19;99.93;;;;;33.30;1.00;;;;;;2576452;55;1058;-89
2021/07/20 08:57:37;293640.00;0.98;506.99;68122.00;0.23;118.52;;;;;33.80;1.00;;;;;;2578731;55;1272;-88
2021/07/20 09:00:24;464291.00;1.55;800.37;94937.00;0.32;164.83;;;;;33.50;1.00;;;;;;2578688;55;1655;-87
2021/07/20 09:03:07;315187.00;1.05;544.03;93361.00;0.31;162.11;;;;;33.60;1.00;;;;;;2562751;56;923;-89
2021/07/20 09:05:47;226243.00;0.75;391.09;62936.00;0.21;109.55;;;;;33.70;1.00;;;;;;2562630;56;1957;-89
2021/07/20 09:08:20;433961.00;1.45;748.20;62481.00;0.21;108.77;;;;;33.10;1.00;;;;;;2562804;56;1707;-89
2021/07/20 09:11:11;633508.00;2.11;1092.11;99651.00;0.33;172.97;;;;;33.10;1.00;;;;;;2562658;56;1639;-89
2021/07/20 09:13:45;228113.00;0.76;394.30;59386.00;0.20;103.42;;;;;32.60;1.00;;;;;;2560611;56;1068;-87
2021/07/20 09:16:29;449689.00;1.50;775.25;116197.00;0.39;201.52;;;;;32.40;1.00;;;;;;2562625;56;1625;-89
2021/07/20 09:19:07;271393.00;0.90;468.74;59237.00;0.20;103.16;;;;;32.30;1.00;;;;;;2562762;56;1724;-89
2021/07/20 09:22:05;;;;;;;;;;;;;;;;;;;;;
2021/07/20 09:25:00;435977.00;1.45;751.66;0.00;0.00;0.62;;;;;32.30;1.00;;;;;;2578042;55;1750;-90
2021/07/20 09:27:40;399068.00;1.33;688.20;104172.00;0.35;180.77;;;;;31.50;1.00;;;;;;2578577;55;1962;-90
2021/07/20 09:30:19;187389.00;0.62;324.21;79354.00;0.26;137.92;;;;;31.60;1.00;;;;;;2578671;55;1723;-89
2021/07/20 09:33:21;552054.00;1.84;951.50;110494.00;0.37;191.68;;;;;31.10;1.00;;;;;;2578673;55;1650;-88
2021/07/20 09:35:57;263076.00;0.88;454.44;42187.00;0.14;73.67;;;;;30.60;1.00;;;;;;2576388;55;1425;-89
2021/07/20 09:39:02;294368.00;0.98;508.24;26774.00;0.09;47.00;;;;;30.70;1.00;;;;;;2578771;55;1253;-90
2021/07/20 09:41:46;111866.00;0.37;194.05;0.00;0.00;0.62;;;;;30.60;1.00;;;;;;2557682;56;1222;-90
2021/07/20 09:44:22;70437.00;0.23;122.52;0.00;0.00;0.62;;;;;30.30;1.00;;;;;;2557637;56;1440;-90
2021/07/20 09:47:07;297900.00;0.99;514.31;0.00;0.00;0.62;;;;;30.10;1.00;;;;;;2555485;56;1891;-90
2021/07/20 09:49:52;434175.00;1.45;748.57;29136.00;0.10;51.09;;;;;30.00;1.00;;;;;;2555273;56;1131;-92
2021/07/20 09:52:56;176379.00;0.59;305.25;0.00;0.00;0.62;;;;;29.90;1.00;;;;;;2557692;56;1212;-89
2021/07/20 09:55:41;512296.00;1.71;883.00;124271.00;0.41;215.45;;;;;29.50;1.00;;;;;;2557691;56;889;-92
2021/07/20 09:58:21;298776.00;1.00;515.82;0.00;0.00;0.62;;;;;29.50;1.00;;;;;;2555530;56;1135;-88
2021/07/20 10:01:15;94991.00;0.32;164.93;25069.00;0.08;44.05;;;;;29.30;1.00;;;;;;2555559;56;1083;-87
2021/07/20 10:03:58;87718.00;0.29;152.37;0.00;0.00;0.62;;;;;29.00;1.00;;;;;;2555028;56;1173;-88
2021/07/20 10:06:38;151711.00;0.51;262.76;0.00;0.00;0.62;;;;;28.90;1.00;;;;;;2557582;56;1958;-86
2021/07/20 10:09:14;3548.00;0.01;6.77;0.00;0.00;0.62;;;;;28.40;1.00;;;;;;2555507;56;1055;-88
2021/07/20 10:11:47;53555.00;0.18;93.33;0.00;0.00;0.62;;;;;28.40;1.00;;;;;;2557512;56;1415;-88
2021/07/20 10:14:43;231345.00;0.77;399.86;0.00;0.00;0.62;;;;;28.90;1.00;;;;;;2557590;56;959;-88
2021/07/20 10:17:19;311454.00;1.04;537.61;0.00;0.00;0.62;;;;;28.80;1.00;;;;;;2569743;55;1578;-87
2021/07/20 10:20:06;30051.00;0.10;52.67;0.00;0.00;0.62;;;;;28.80;1.00;;;;;;2578661;55;898;-90
2021/07/20 10:22:39;104475.00;0.35;181.30;0.00;0.00;0.62;;;;;29.30;1.00;;;;;;2578609;55;1560;-88
2021/07/20 10:25:16;111824.00;0.37;193.98;0.00;0.00;0.62;;;;;29.20;1.00;;;;;;2578616;55;1687;-88
2021/07/20 10:27:53;154751.00;0.52;267.99;0.00;0.00;0.62;;;;;29.30;1.00;;;;;;2578453;55;1915;-89